This is the latest recevied weather packets stored in our database for station/object CT1ETE-13. If no packets are shown the sender has not sent any weather packets the latest 1 day(s).
| Time | Temp. | Humidity | Pressure | Rain* | Wind** | Luminosity | Snow |
|---|---|---|---|---|---|---|---|
| 1778013478 | 12.22° C | 82% | 1016.2 hPa | 0 mm | 2.24 m/s, 242° | - | - |
| 1778012518 | 12.22° C | 82% | 1016.1 hPa | 0 mm | 2.24 m/s, 248° | - | - |
| 1778011618 | 12.22° C | 81% | 1015.9 hPa | 0 mm | 2.24 m/s, 222° | - | - |
| 1778010720 | 12.78° C | 80% | 1015.7 hPa | 0 mm | 1.79 m/s, 267° | - | - |
| 1778009816 | 12.78° C | 79% | 1015.6 hPa | 0 mm | 1.79 m/s, 242° | - | - |
| 1778008976 | 13.33° C | 78% | 1015.5 hPa | 0 mm | 2.24 m/s, 272° | - | - |
| 1778008016 | 13.33° C | 77% | 1015.4 hPa | 0 mm | 2.24 m/s, 254° | - | - |
| 1778007116 | 13.89° C | 75% | 1015.4 hPa | 0 mm | 2.24 m/s, 279° | - | - |
| 1778006276 | 14.44° C | 73% | 1015.5 hPa | 0 mm | 2.24 m/s, 272° | - | - |
| 1778005316 | 15° C | 71% | 1015.2 hPa | 0 mm | 3.13 m/s, 257° | - | - |
| 1778004415 | 15° C | 71% | 1015.2 hPa | 0 mm | 4.02 m/s, 282° | - | - |
| 1778003517 | 15° C | 71% | 1015.1 hPa | 0 mm | 3.13 m/s, 299° | - | - |
| 1778002616 | 15.56° C | 67% | 1015.2 hPa | 0 mm | 3.58 m/s, 267° | - | - |
| 1778001776 | 15° C | 72% | 1015.2 hPa | 0 mm | 2.68 m/s, 248° | - | - |
| 1777999910 | 14.44° C | 75% | 1015.4 hPa | 0 mm | 3.13 m/s, 259° | - | - |
| 1777999010 | 15° C | 76% | 1015.4 hPa | 0 mm | 3.58 m/s, 244° | - | - |
| 1777998110 | 14.44° C | 76% | 1015.4 hPa | 0 mm | 4.02 m/s, 272° | - | - |
| 1777997270 | 14.44° C | 78% | 1015.2 hPa | 0 mm | 3.13 m/s, 255° | - | - |
| 1777996372 | 15° C | 77% | 1015.2 hPa | 0 mm | 4.47 m/s, 244° | - | - |
| 1777995467 | 15.56° C | 80% | 1015.2 hPa | 0 mm | 3.13 m/s, 243° | - | - |
| 1777994507 | 15° C | 82% | 1015.2 hPa | 0 mm | 2.24 m/s, 234° | - | - |
| 1777993607 | 14.44° C | 83% | 1015.6 hPa | 0.25 mm | 1.34 m/s, 234° | - | - |
| 1777992768 | 13.89° C | 84% | 1015.7 hPa | 0.51 mm | 2.24 m/s, 240° | - | - |
| 1777991808 | 13.89° C | 85% | 1015.8 hPa | 1.27 mm | 0.89 m/s, 296° | - | - |
| 1777990907 | 12.78° C | 85% | 1016 hPa | 1.27 mm | 0.89 m/s, 226° | - | - |
* Rain latest hour (hover to see other rain measurements)
** Current wind speed in m/s (hover to see current wind gust speed)